Time,TemperatureF,DewpointF,PressureIn,WindDirection,WindDirectionDegrees,WindSpeedMPH,WindSpeedGustMPH,Humidity,HourlyPrecipIn,Conditions,Clouds,dailyrainin,SoftwareType,DateUTC
2013-09-19 00:02:00,54.0,52.0,-100.00,South,178,1.0,-999.0,94,0.00,,,-99.99,,2013-09-19 07:02:00,
2013-09-19 00:11:00,54.0,52.0,-100.00,South,178,1.0,-999.0,94,0.00,,,-99.99,,2013-09-19 07:11:00,
2013-09-19 00:21:00,54.0,52.0,-100.00,South,178,1.0,-999.0,94,0.00,,,-99.99,,2013-09-19 07:21:00,
2013-09-19 00:30:00,53.0,51.0,-100.00,South,182,1.0,-999.0,94,0.00,,,-99.99,,2013-09-19 07:30:00,
2013-09-19 00:52:00,53.0,51.0,-100.00,South,182,1.0,-999.0,94,0.00,,,-99.99,,2013-09-19 07:52:00,
2013-09-19 01:02:00,53.0,51.0,-100.00,South,182,1.0,-999.0,94,0.00,,,-99.99,,2013-09-19 08:02:00,
2013-09-19 01:11:00,53.0,51.0,-100.00,South,182,1.0,-999.0,94,0.00,,,-99.99,,2013-09-19 08:11:00,
2013-09-19 01:21:00,53.0,51.0,-100.00,South,182,1.0,-999.0,94,0.00,,,-99.99,,2013-09-19 08:21:00,
2013-09-19 01:30:00,51.0,50.0,-100.00,South,176,2.0,-999.0,95,0.00,,,-99.99,,2013-09-19 08:30:00,
2013-09-19 01:52:00,51.0,50.0,-100.00,South,176,2.0,-999.0,95,0.00,,,-99.99,,2013-09-19 08:52:00,
2013-09-19 02:02:00,51.0,50.0,-100.00,South,176,2.0,-999.0,95,0.00,,,-99.99,,2013-09-19 09:02:00,
2013-09-19 02:11:00,51.0,50.0,-100.00,South,176,2.0,-999.0,95,0.00,,,-99.99,,2013-09-19 09:11:00,
2013-09-19 02:21:00,51.0,50.0,-100.00,South,176,2.0,-999.0,95,0.00,,,-99.99,,2013-09-19 09:21:00,
2013-09-19 02:30:00,51.0,50.0,-100.00,South,181,2.0,-999.0,96,0.00,,,-99.99,,2013-09-19 09:30:00,
2013-09-19 02:53:00,51.0,50.0,-100.00,South,181,2.0,-999.0,96,0.00,,,-99.99,,2013-09-19 09:53:00,
2013-09-19 03:03:00,51.0,50.0,-100.00,South,181,2.0,-999.0,96,0.00,,,-99.99,,2013-09-19 10:03:00,
2013-09-19 03:12:00,51.0,50.0,-100.00,South,181,2.0,-999.0,96,0.00,,,-99.99,,2013-09-19 10:12:00,
2013-09-19 03:23:00,51.0,50.0,-100.00,South,181,2.0,-999.0,96,0.00,,,-99.99,,2013-09-19 10:23:00,
2013-09-19 03:30:00,50.0,49.0,-100.00,South,186,2.0,-999.0,96,0.00,,,-99.99,,2013-09-19 10:30:00,
2013-09-19 03:52:00,50.0,49.0,-100.00,South,186,2.0,-999.0,96,0.00,,,-99.99,,2013-09-19 10:52:00,
2013-09-19 04:03:00,50.0,49.0,-100.00,South,186,2.0,-999.0,96,0.00,,,-99.99,,2013-09-19 11:03:00,
2013-09-19 04:12:00,50.0,49.0,-100.00,South,186,2.0,-999.0,96,0.00,,,-99.99,,2013-09-19 11:12:00,
2013-09-19 04:22:00,50.0,49.0,-100.00,South,186,2.0,-999.0,96,0.00,,,-99.99,,2013-09-19 11:22:00,
2013-09-19 04:30:00,49.0,48.0,-100.00,South,180,2.0,-999.0,96,0.00,,,-99.99,,2013-09-19 11:30:00,
2013-09-19 04:52:00,49.0,48.0,-100.00,South,180,2.0,-999.0,96,0.00,,,-99.99,,2013-09-19 11:52:00,
2013-09-19 05:01:00,49.0,48.0,-100.00,South,180,2.0,-999.0,96,0.00,,,-99.99,,2013-09-19 12:01:00,
2013-09-19 05:11:00,49.0,48.0,-100.00,South,180,2.0,-999.0,96,0.00,,,-99.99,,2013-09-19 12:11:00,
2013-09-19 05:21:00,49.0,48.0,-100.00,South,180,2.0,-999.0,96,0.00,,,-99.99,,2013-09-19 12:21:00,
2013-09-19 05:30:00,49.0,48.0,-100.00,South,177,1.0,-999.0,97,0.00,,,-99.99,,2013-09-19 12:30:00,
2013-09-19 05:52:00,49.0,48.0,-100.00,South,177,1.0,-999.0,97,0.00,,,-99.99,,2013-09-19 12:52:00,
2013-09-19 06:21:00,49.0,48.0,-100.00,South,177,1.0,-999.0,97,0.00,,,-99.99,,2013-09-19 13:21:00,
2013-09-19 06:30:00,48.0,47.0,-100.00,South,176,1.0,-999.0,97,0.00,,,-99.99,,2013-09-19 13:30:00,
2013-09-19 06:52:00,48.0,47.0,-100.00,South,176,1.0,-999.0,97,0.00,,,-99.99,,2013-09-19 13:52:00,
2013-09-19 07:02:00,48.0,47.0,-100.00,South,176,1.0,-999.0,97,0.00,,,-99.99,,2013-09-19 14:02:00,
2013-09-19 07:12:00,48.0,47.0,-100.00,South,176,1.0,-999.0,97,0.00,,,-99.99,,2013-09-19 14:12:00,
2013-09-19 07:22:00,48.0,47.0,-100.00,South,176,1.0,-999.0,97,0.00,,,-99.99,,2013-09-19 14:22:00,
2013-09-19 07:30:00,48.0,47.0,-100.00,South,173,2.0,-999.0,97,0.00,,,-99.99,,2013-09-19 14:30:00,
2013-09-19 07:52:00,48.0,47.0,-100.00,South,173,2.0,-999.0,97,0.00,,,-99.99,,2013-09-19 14:52:00,
2013-09-19 08:01:00,48.0,47.0,-100.00,South,173,2.0,-999.0,97,0.00,,,-99.99,,2013-09-19 15:01:00,
2013-09-19 08:11:00,48.0,47.0,-100.00,South,173,2.0,-999.0,97,0.00,,,-99.99,,2013-09-19 15:11:00,
2013-09-19 08:22:00,48.0,47.0,-100.00,South,173,2.0,-999.0,97,0.00,,,-99.99,,2013-09-19 15:22:00,
2013-09-19 08:30:00,51.0,49.0,-100.00,South,173,2.0,-999.0,95,0.00,,,-99.99,,2013-09-19 15:30:00,
2013-09-19 08:54:00,51.0,49.0,-100.00,South,173,2.0,-999.0,95,0.00,,,-99.99,,2013-09-19 15:54:00,
2013-09-19 09:03:00,51.0,49.0,-100.00,South,173,2.0,-999.0,95,0.00,,,-99.99,,2013-09-19 16:03:00,
2013-09-19 09:13:00,51.0,49.0,-100.00,South,173,2.0,-999.0,95,0.00,,,-99.99,,2013-09-19 16:13:00,
2013-09-19 09:23:00,51.0,49.0,-100.00,South,173,2.0,-999.0,95,0.00,,,-99.99,,2013-09-19 16:23:00,
2013-09-19 09:30:00,56.0,51.0,-100.00,SSE,155,1.0,-999.0,83,0.00,,,-99.99,,2013-09-19 16:30:00,
2013-09-19 09:52:00,56.0,51.0,-100.00,SSE,155,1.0,-999.0,83,0.00,,,-99.99,,2013-09-19 16:52:00,
2013-09-19 10:03:00,56.0,51.0,-100.00,SSE,155,1.0,-999.0,83,0.00,,,-99.99,,2013-09-19 17:03:00,
2013-09-19 10:12:00,56.0,51.0,-100.00,SSE,155,1.0,-999.0,83,0.00,,,-99.99,,2013-09-19 17:12:00,
2013-09-19 10:23:00,56.0,51.0,-100.00,SSE,155,1.0,-999.0,83,0.00,,,-99.99,,2013-09-19 17:23:00,
2013-09-19 10:30:00,62.0,52.0,-100.00,SSE,158,1.0,-999.0,69,0.00,,,-99.99,,2013-09-19 17:30:00,
2013-09-19 10:53:00,62.0,52.0,-100.00,SSE,158,1.0,-999.0,69,0.00,,,-99.99,,2013-09-19 17:53:00,
2013-09-19 11:02:00,62.0,52.0,-100.00,SSE,158,1.0,-999.0,69,0.00,,,-99.99,,2013-09-19 18:02:00,
2013-09-19 11:11:00,62.0,52.0,-100.00,SSE,158,1.0,-999.0,69,0.00,,,-99.99,,2013-09-19 18:11:00,
2013-09-19 11:22:00,62.0,52.0,-100.00,SSE,158,1.0,-999.0,69,0.00,,,-99.99,,2013-09-19 18:22:00,
2013-09-19 11:30:00,63.0,53.0,-100.00,NNE,22,3.0,-999.0,70,0.00,,,-99.99,,2013-09-19 18:30:00,
2013-09-19 11:52:00,63.0,53.0,-100.00,NNE,22,3.0,-999.0,70,0.00,,,-99.99,,2013-09-19 18:52:00,
2013-09-19 12:02:00,63.0,53.0,-100.00,NNE,22,3.0,-999.0,70,0.00,,,-99.99,,2013-09-19 19:02:00,
2013-09-19 12:12:00,63.0,53.0,-100.00,NNE,22,3.0,-999.0,70,0.00,,,-99.99,,2013-09-19 19:12:00,
2013-09-19 12:21:00,63.0,53.0,-100.00,NNE,22,3.0,-999.0,70,0.00,,,-99.99,,2013-09-19 19:21:00,
2013-09-19 12:30:00,66.0,52.0,-100.00,SSW,204,4.0,-999.0,61,0.00,,,-99.99,,2013-09-19 19:30:00,
2013-09-19 12:52:00,66.0,52.0,-100.00,SSW,204,4.0,-999.0,61,0.00,,,-99.99,,2013-09-19 19:52:00,
2013-09-19 13:02:00,66.0,52.0,-100.00,SSW,204,4.0,-999.0,61,0.00,,,-99.99,,2013-09-19 20:02:00,
2013-09-19 13:12:00,66.0,52.0,-100.00,SSW,204,4.0,-999.0,61,0.00,,,-99.99,,2013-09-19 20:12:00,
2013-09-19 13:21:00,66.0,52.0,-100.00,SSW,204,4.0,-999.0,61,0.00,,,-99.99,,2013-09-19 20:21:00,
2013-09-19 13:30:00,68.0,52.0,-100.00,ENE,62,2.0,-999.0,56,0.00,,,-99.99,,2013-09-19 20:30:00,
2013-09-19 13:52:00,68.0,52.0,-100.00,ENE,62,2.0,-999.0,56,0.00,,,-99.99,,2013-09-19 20:52:00,
2013-09-19 14:02:00,68.0,52.0,-100.00,ENE,62,2.0,-999.0,56,0.00,,,-99.99,,2013-09-19 21:02:00,
2013-09-19 14:11:00,68.0,52.0,-100.00,ENE,62,2.0,-999.0,56,0.00,,,-99.99,,2013-09-19 21:11:00,
2013-09-19 14:22:00,68.0,52.0,-100.00,ENE,62,2.0,-999.0,56,0.00,,,-99.99,,2013-09-19 21:22:00,
2013-09-19 14:30:00,67.0,56.0,-100.00,NNE,16,3.0,-999.0,69,0.00,,,-99.99,,2013-09-19 21:30:00,
2013-09-19 14:55:00,67.0,56.0,-100.00,NNE,16,3.0,-999.0,69,0.00,,,-99.99,,2013-09-19 21:55:00,
2013-09-19 15:04:00,67.0,56.0,-100.00,NNE,16,3.0,-999.0,69,0.00,,,-99.99,,2013-09-19 22:04:00,
2013-09-19 15:14:00,67.0,56.0,-100.00,NNE,16,3.0,-999.0,69,0.00,,,-99.99,,2013-09-19 22:14:00,
2013-09-19 15:24:00,67.0,56.0,-100.00,NNE,16,3.0,-999.0,69,0.00,,,-99.99,,2013-09-19 22:24:00,
2013-09-19 15:30:00,66.0,55.0,-100.00,NNE,12,3.0,-999.0,68,0.00,,,-99.99,,2013-09-19 22:30:00,
2013-09-19 15:53:00,66.0,55.0,-100.00,NNE,12,3.0,-999.0,68,0.00,,,-99.99,,2013-09-19 22:53:00,
2013-09-19 16:03:00,66.0,55.0,-100.00,NNE,12,3.0,-999.0,68,0.00,,,-99.99,,2013-09-19 23:03:00,
2013-09-19 16:12:00,66.0,55.0,-100.00,NNE,12,3.0,-999.0,68,0.00,,,-99.99,,2013-09-19 23:12:00,
2013-09-19 16:22:00,66.0,55.0,-100.00,NNE,12,3.0,-999.0,68,0.00,,,-99.99,,2013-09-19 23:22:00,
2013-09-19 16:30:00,65.0,53.0,-100.00,NNE,15,2.0,-999.0,64,0.00,,,-99.99,,2013-09-19 23:30:00,
2013-09-19 16:53:00,65.0,53.0,-100.00,NNE,15,2.0,-999.0,64,0.00,,,-99.99,,2013-09-19 23:53:00,
2013-09-19 17:02:00,65.0,53.0,-100.00,NNE,15,2.0,-999.0,64,0.00,,,-99.99,,2013-09-20 00:02:00,
2013-09-19 17:21:00,65.0,53.0,-100.00,NNE,15,2.0,-999.0,64,0.00,,,-99.99,,2013-09-20 00:21:00,
2013-09-19 17:30:00,65.0,51.0,-100.00,North,7,2.0,-999.0,60,0.00,,,-99.99,,2013-09-20 00:30:00,
2013-09-19 17:52:00,65.0,51.0,-100.00,North,7,2.0,-999.0,60,0.00,,,-99.99,,2013-09-20 00:52:00,
2013-09-19 18:02:00,65.0,51.0,-100.00,North,7,2.0,-999.0,60,0.00,,,-99.99,,2013-09-20 01:02:00,
2013-09-19 18:12:00,65.0,51.0,-100.00,North,7,2.0,-999.0,60,0.00,,,-99.99,,2013-09-20 01:12:00,
2013-09-19 18:22:00,65.0,51.0,-100.00,North,7,2.0,-999.0,60,0.00,,,-99.99,,2013-09-20 01:22:00,
2013-09-19 18:30:00,62.0,52.0,-100.00,WNW,301,0.0,-999.0,70,0.00,,,-99.99,,2013-09-20 01:30:00,
2013-09-19 18:52:00,62.0,52.0,-100.00,WNW,301,0.0,-999.0,70,0.00,,,-99.99,,2013-09-20 01:52:00,
2013-09-19 19:02:00,62.0,52.0,-100.00,WNW,301,0.0,-999.0,70,0.00,,,-99.99,,2013-09-20 02:02:00,
2013-09-19 19:12:00,62.0,52.0,-100.00,WNW,301,0.0,-999.0,70,0.00,,,-99.99,,2013-09-20 02:12:00,
2013-09-19 19:22:00,62.0,52.0,-100.00,WNW,301,0.0,-999.0,70,0.00,,,-99.99,,2013-09-20 02:22:00,
2013-09-19 19:30:00,58.0,52.0,-100.00,SW,232,1.0,-999.0,79,0.00,,,-99.99,,2013-09-20 02:30:00,
2013-09-19 19:52:00,58.0,52.0,-100.00,SW,232,1.0,-999.0,79,0.00,,,-99.99,,2013-09-20 02:52:00,
2013-09-19 20:02:00,58.0,52.0,-100.00,SW,232,1.0,-999.0,79,0.00,,,-99.99,,2013-09-20 03:02:00,
2013-09-19 20:12:00,58.0,52.0,-100.00,SW,232,1.0,-999.0,79,0.00,,,-99.99,,2013-09-20 03:12:00,
2013-09-19 20:22:00,58.0,52.0,-100.00,SW,232,1.0,-999.0,79,0.00,,,-99.99,,2013-09-20 03:22:00,
2013-09-19 20:30:00,56.0,51.0,-100.00,SSW,197,2.0,-999.0,84,0.00,,,-99.99,,2013-09-20 03:30:00,
2013-09-19 20:56:00,56.0,51.0,-100.00,SSW,197,2.0,-999.0,84,0.00,,,-99.99,,2013-09-20 03:56:00,
2013-09-19 21:05:00,56.0,51.0,-100.00,SSW,197,2.0,-999.0,84,0.00,,,-99.99,,2013-09-20 04:05:00,
2013-09-19 21:14:00,56.0,51.0,-100.00,SSW,197,2.0,-999.0,84,0.00,,,-99.99,,2013-09-20 04:14:00,
2013-09-19 21:24:00,56.0,51.0,-100.00,SSW,197,2.0,-999.0,84,0.00,,,-99.99,,2013-09-20 04:24:00,
2013-09-19 21:30:00,54.0,50.0,-100.00,SSW,193,2.0,-999.0,86,0.00,,,-99.99,,2013-09-20 04:30:00,
2013-09-19 21:54:00,54.0,50.0,-100.00,SSW,193,2.0,-999.0,86,0.00,,,-99.99,,2013-09-20 04:54:00,
2013-09-19 22:03:00,54.0,50.0,-100.00,SSW,193,2.0,-999.0,86,0.00,,,-99.99,,2013-09-20 05:03:00,
2013-09-19 22:13:00,54.0,50.0,-100.00,SSW,193,2.0,-999.0,86,0.00,,,-99.99,,2013-09-20 05:13:00,
2013-09-19 22:23:00,54.0,50.0,-100.00,SSW,193,2.0,-999.0,86,0.00,,,-99.99,,2013-09-20 05:23:00,
2013-09-19 22:30:00,54.0,49.0,-100.00,South,187,2.0,-999.0,86,0.00,,,-99.99,,2013-09-20 05:30:00,
2013-09-19 22:53:00,54.0,49.0,-100.00,South,187,2.0,-999.0,86,0.00,,,-99.99,,2013-09-20 05:53:00,
2013-09-19 23:03:00,54.0,49.0,-100.00,South,187,2.0,-999.0,86,0.00,,,-99.99,,2013-09-20 06:03:00,
2013-09-19 23:12:00,54.0,49.0,-100.00,South,187,2.0,-999.0,86,0.00,,,-99.99,,2013-09-20 06:12:00,
2013-09-19 23:22:00,54.0,49.0,-100.00,South,187,2.0,-999.0,86,0.00,,,-99.99,,2013-09-20 06:22:00,
2013-09-19 23:30:00,52.0,48.0,-100.00,SSW,197,1.0,-999.0,89,0.00,,,-99.99,,2013-09-20 06:30:00,
2013-09-19 23:52:00,52.0,48.0,-100.00,SSW,197,1.0,-999.0,89,0.00,,,-99.99,,2013-09-20 06:52:00,